sensor_id;sensor_type;location;lat;lon;timestamp;temperature;humidity
36800;DHT22;22752;51.960;5.886;2023-04-01T00:02:18;10.80;99.90
36800;DHT22;22752;51.960;5.886;2023-04-01T00:04:49;10.70;99.90
36800;DHT22;22752;51.960;5.886;2023-04-01T00:07:37;10.70;99.90
36800;DHT22;22752;51.960;5.886;2023-04-01T00:10:07;10.70;99.90
36800;DHT22;22752;51.960;5.886;2023-04-01T00:12:33;10.70;99.90
36800;DHT22;22752;51.960;5.886;2023-04-01T00:14:59;10.70;99.90
36800;DHT22;22752;51.960;5.886;2023-04-01T00:17:25;10.70;99.90
36800;DHT22;22752;51.960;5.886;2023-04-01T00:19:51;10.70;99.90
36800;DHT22;22752;51.960;5.886;2023-04-01T00:22:17;10.70;99.90
36800;DHT22;22752;51.960;5.886;2023-04-01T00:24:42;10.70;99.90
36800;DHT22;22752;51.960;5.886;2023-04-01T00:27:08;10.70;99.90
36800;DHT22;22752;51.960;5.886;2023-04-01T00:29:34;10.70;99.90
36800;DHT22;22752;51.960;5.886;2023-04-01T00:32:00;10.70;99.90
36800;DHT22;22752;51.960;5.886;2023-04-01T00:34:26;10.70;99.90
36800;DHT22;22752;51.960;5.886;2023-04-01T00:36:52;10.70;99.90
36800;DHT22;22752;51.960;5.886;2023-04-01T00:39:19;10.70;99.90
36800;DHT22;22752;51.960;5.886;2023-04-01T00:41:45;10.70;99.90
36800;DHT22;22752;51.960;5.886;2023-04-01T00:44:21;10.70;99.90
36800;DHT22;22752;51.960;5.886;2023-04-01T00:46:46;10.70;99.90
36800;DHT22;22752;51.960;5.886;2023-04-01T00:49:12;10.80;99.90
36800;DHT22;22752;51.960;5.886;2023-04-01T00:51:39;10.70;99.90
36800;DHT22;22752;51.960;5.886;2023-04-01T00:54:06;10.70;99.90
36800;DHT22;22752;51.960;5.886;2023-04-01T00:56:36;10.70;99.90
36800;DHT22;22752;51.960;5.886;2023-04-01T00:59:08;10.70;99.90
36800;DHT22;22752;51.960;5.886;2023-04-01T01:01:36;10.70;99.90
36800;DHT22;22752;51.960;5.886;2023-04-01T01:04:03;10.80;99.90
36800;DHT22;22752;51.960;5.886;2023-04-01T01:14:59;10.80;99.90
36800;DHT22;22752;51.960;5.886;2023-04-01T01:27:16;10.80;99.90
36800;DHT22;22752;51.960;5.886;2023-04-01T01:30:42;10.80;99.90
36800;DHT22;22752;51.960;5.886;2023-04-01T01:36:20;10.80;99.90
36800;DHT22;22752;51.960;5.886;2023-04-01T01:38:48;10.80;99.90
36800;DHT22;22752;51.960;5.886;2023-04-01T01:41:16;10.80;99.90
36800;DHT22;22752;51.960;5.886;2023-04-01T01:43:44;10.80;99.90
36800;DHT22;22752;51.960;5.886;2023-04-01T01:46:19;10.80;99.90
36800;DHT22;22752;51.960;5.886;2023-04-01T01:48:47;10.80;99.90
36800;DHT22;22752;51.960;5.886;2023-04-01T01:51:13;10.80;99.90
36800;DHT22;22752;51.960;5.886;2023-04-01T01:53:38;10.80;99.90
36800;DHT22;22752;51.960;5.886;2023-04-01T01:56:04;10.80;99.90
36800;DHT22;22752;51.960;5.886;2023-04-01T01:58:38;10.80;99.90
36800;DHT22;22752;51.960;5.886;2023-04-01T02:01:42;10.80;99.90
36800;DHT22;22752;51.960;5.886;2023-04-01T02:04:00;10.80;99.90
36800;DHT22;22752;51.960;5.886;2023-04-01T02:06:28;10.70;99.90
36800;DHT22;22752;51.960;5.886;2023-04-01T02:09:01;10.70;99.90
36800;DHT22;22752;51.960;5.886;2023-04-01T02:11:59;10.70;99.90
36800;DHT22;22752;51.960;5.886;2023-04-01T02:14:29;10.70;99.90
36800;DHT22;22752;51.960;5.886;2023-04-01T02:17:04;10.70;99.90
36800;DHT22;22752;51.960;5.886;2023-04-01T02:19:52;10.70;99.90
36800;DHT22;22752;51.960;5.886;2023-04-01T02:22:25;10.60;99.90
36800;DHT22;22752;51.960;5.886;2023-04-01T02:24:58;10.60;99.90
36800;DHT22;22752;51.960;5.886;2023-04-01T02:27:25;10.60;99.90
36800;DHT22;22752;51.960;5.886;2023-04-01T02:29:51;10.60;99.90
36800;DHT22;22752;51.960;5.886;2023-04-01T02:32:19;10.60;99.90
36800;DHT22;22752;51.960;5.886;2023-04-01T02:34:46;10.60;99.90
36800;DHT22;22752;51.960;5.886;2023-04-01T02:37:13;10.60;99.90
36800;DHT22;22752;51.960;5.886;2023-04-01T02:39:39;10.60;99.90
36800;DHT22;22752;51.960;5.886;2023-04-01T02:42:05;10.60;99.90
36800;DHT22;22752;51.960;5.886;2023-04-01T02:44:31;10.60;99.90
36800;DHT22;22752;51.960;5.886;2023-04-01T02:46:57;10.60;99.90
36800;DHT22;22752;51.960;5.886;2023-04-01T02:49:22;10.60;99.90
36800;DHT22;22752;51.960;5.886;2023-04-01T02:51:48;10.60;99.90
36800;DHT22;22752;51.960;5.886;2023-04-01T02:54:14;10.50;99.90
36800;DHT22;22752;51.960;5.886;2023-04-01T02:56:40;10.60;99.90
36800;DHT22;22752;51.960;5.886;2023-04-01T02:59:42;10.50;99.90
36800;DHT22;22752;51.960;5.886;2023-04-01T03:02:44;10.60;99.90
36800;DHT22;22752;51.960;5.886;2023-04-01T03:06:21;10.50;99.90
36800;DHT22;22752;51.960;5.886;2023-04-01T03:08:47;10.50;99.90
36800;DHT22;22752;51.960;5.886;2023-04-01T03:11:13;10.40;99.90
36800;DHT22;22752;51.960;5.886;2023-04-01T03:13:39;10.40;99.90
36800;DHT22;22752;51.960;5.886;2023-04-01T03:16:05;10.40;99.90
36800;DHT22;22752;51.960;5.886;2023-04-01T03:18:31;10.50;99.90
36800;DHT22;22752;51.960;5.886;2023-04-01T03:20:57;10.50;99.90
36800;DHT22;22752;51.960;5.886;2023-04-01T03:23:22;10.50;99.90
36800;DHT22;22752;51.960;5.886;2023-04-01T03:25:50;10.50;99.90
36800;DHT22;22752;51.960;5.886;2023-04-01T03:28:44;10.50;99.90
36800;DHT22;22752;51.960;5.886;2023-04-01T03:31:10;10.40;99.90
36800;DHT22;22752;51.960;5.886;2023-04-01T03:33:36;10.50;99.90
36800;DHT22;22752;51.960;5.886;2023-04-01T03:36:02;10.40;99.90
36800;DHT22;22752;51.960;5.886;2023-04-01T03:38:34;10.40;99.90
36800;DHT22;22752;51.960;5.886;2023-04-01T03:41:00;10.40;99.90
36800;DHT22;22752;51.960;5.886;2023-04-01T03:43:43;10.50;99.90
36800;DHT22;22752;51.960;5.886;2023-04-01T03:46:09;10.40;99.90
36800;DHT22;22752;51.960;5.886;2023-04-01T03:48:35;10.40;99.90
36800;DHT22;22752;51.960;5.886;2023-04-01T03:51:00;10.40;99.90
36800;DHT22;22752;51.960;5.886;2023-04-01T03:53:26;10.40;99.90
36800;DHT22;22752;51.960;5.886;2023-04-01T03:56:11;10.40;99.90
36800;DHT22;22752;51.960;5.886;2023-04-01T03:58:37;10.50;99.90
36800;DHT22;22752;51.960;5.886;2023-04-01T04:01:17;10.40;99.90
36800;DHT22;22752;51.960;5.886;2023-04-01T04:03:43;10.40;99.90
36800;DHT22;22752;51.960;5.886;2023-04-01T04:06:13;10.40;99.90
36800;DHT22;22752;51.960;5.886;2023-04-01T04:08:39;10.40;99.90
36800;DHT22;22752;51.960;5.886;2023-04-01T04:11:25;10.40;99.90
36800;DHT22;22752;51.960;5.886;2023-04-01T04:13:51;10.30;99.90
36800;DHT22;22752;51.960;5.886;2023-04-01T04:16:18;10.30;99.90
36800;DHT22;22752;51.960;5.886;2023-04-01T04:18:43;10.30;99.90
36800;DHT22;22752;51.960;5.886;2023-04-01T04:21:13;10.30;99.90
36800;DHT22;22752;51.960;5.886;2023-04-01T04:23:40;10.30;99.90
36800;DHT22;22752;51.960;5.886;2023-04-01T04:26:09;10.30;99.90
36800;DHT22;22752;51.960;5.886;2023-04-01T04:28:34;10.30;99.90
36800;DHT22;22752;51.960;5.886;2023-04-01T04:31:00;10.30;99.90
36800;DHT22;22752;51.960;5.886;2023-04-01T04:33:26;10.30;99.90
36800;DHT22;22752;51.960;5.886;2023-04-01T04:35:55;10.30;99.90
36800;DHT22;22752;51.960;5.886;2023-04-01T04:38:21;10.30;99.90
36800;DHT22;22752;51.960;5.886;2023-04-01T04:40:47;10.30;99.90
36800;DHT22;22752;51.960;5.886;2023-04-01T04:43:14;10.30;99.90
36800;DHT22;22752;51.960;5.886;2023-04-01T04:45:41;10.30;99.90
36800;DHT22;22752;51.960;5.886;2023-04-01T04:48:08;10.30;99.90
36800;DHT22;22752;51.960;5.886;2023-04-01T04:50:34;10.30;99.90
36800;DHT22;22752;51.960;5.886;2023-04-01T04:53:01;10.30;99.90
36800;DHT22;22752;51.960;5.886;2023-04-01T04:59:16;10.30;99.90
36800;DHT22;22752;51.960;5.886;2023-04-01T05:01:42;10.20;99.90
36800;DHT22;22752;51.960;5.886;2023-04-01T05:04:07;10.20;99.90
36800;DHT22;22752;51.960;5.886;2023-04-01T05:06:33;10.20;99.90
36800;DHT22;22752;51.960;5.886;2023-04-01T05:08:59;10.20;99.90
36800;DHT22;22752;51.960;5.886;2023-04-01T05:11:24;10.30;99.90
36800;DHT22;22752;51.960;5.886;2023-04-01T05:13:51;10.30;99.90
36800;DHT22;22752;51.960;5.886;2023-04-01T05:16:19;10.20;99.90
36800;DHT22;22752;51.960;5.886;2023-04-01T05:18:45;10.30;99.90
36800;DHT22;22752;51.960;5.886;2023-04-01T05:21:12;10.30;99.90
36800;DHT22;22752;51.960;5.886;2023-04-01T05:23:39;10.30;99.90
36800;DHT22;22752;51.960;5.886;2023-04-01T05:26:10;10.30;99.90
36800;DHT22;22752;51.960;5.886;2023-04-01T05:28:36;10.30;99.90
36800;DHT22;22752;51.960;5.886;2023-04-01T05:31:04;10.30;99.90
36800;DHT22;22752;51.960;5.886;2023-04-01T05:33:30;10.40;99.90
36800;DHT22;22752;51.960;5.886;2023-04-01T05:35:56;10.40;99.90
36800;DHT22;22752;51.960;5.886;2023-04-01T05:38:22;10.40;99.90
36800;DHT22;22752;51.960;5.886;2023-04-01T05:40:48;10.40;99.90
36800;DHT22;22752;51.960;5.886;2023-04-01T05:43:13;10.40;99.90
36800;DHT22;22752;51.960;5.886;2023-04-01T05:45:39;10.40;99.90
36800;DHT22;22752;51.960;5.886;2023-04-01T05:48:05;10.50;99.90
36800;DHT22;22752;51.960;5.886;2023-04-01T05:50:31;10.50;99.90
36800;DHT22;22752;51.960;5.886;2023-04-01T05:52:57;10.50;99.90
36800;DHT22;22752;51.960;5.886;2023-04-01T05:55:23;10.50;99.90
36800;DHT22;22752;51.960;5.886;2023-04-01T05:57:48;10.60;99.90
36800;DHT22;22752;51.960;5.886;2023-04-01T06:00:16;10.60;99.90
36800;DHT22;22752;51.960;5.886;2023-04-01T06:02:41;10.60;99.90
36800;DHT22;22752;51.960;5.886;2023-04-01T06:07:43;10.60;99.90
36800;DHT22;22752;51.960;5.886;2023-04-01T06:10:19;10.70;99.90
36800;DHT22;22752;51.960;5.886;2023-04-01T06:29:31;10.80;99.90
36800;DHT22;22752;51.960;5.886;2023-04-01T06:37:48;10.90;99.90
36800;DHT22;22752;51.960;5.886;2023-04-01T06:40:12;10.90;99.90
36800;DHT22;22752;51.960;5.886;2023-04-01T06:45:40;11.00;99.90
36800;DHT22;22752;51.960;5.886;2023-04-01T06:51:20;11.00;99.90
36800;DHT22;22752;51.960;5.886;2023-04-01T06:54:14;11.00;99.90
36800;DHT22;22752;51.960;5.886;2023-04-01T06:56:44;11.10;99.90
36800;DHT22;22752;51.960;5.886;2023-04-01T06:59:28;11.10;99.90
36800;DHT22;22752;51.960;5.886;2023-04-01T07:02:02;11.10;99.90
36800;DHT22;22752;51.960;5.886;2023-04-01T07:04:33;11.10;99.90
36800;DHT22;22752;51.960;5.886;2023-04-01T07:07:03;11.10;99.90
36800;DHT22;22752;51.960;5.886;2023-04-01T07:09:37;11.10;99.90
36800;DHT22;22752;51.960;5.886;2023-04-01T07:12:12;11.10;99.90
36800;DHT22;22752;51.960;5.886;2023-04-01T07:14:41;11.20;99.90
36800;DHT22;22752;51.960;5.886;2023-04-01T07:17:15;11.20;99.90
36800;DHT22;22752;51.960;5.886;2023-04-01T07:19:45;11.20;99.90
36800;DHT22;22752;51.960;5.886;2023-04-01T07:24:51;11.20;99.90
36800;DHT22;22752;51.960;5.886;2023-04-01T07:27:17;11.20;99.90
36800;DHT22;22752;51.960;5.886;2023-04-01T07:29:43;11.20;99.90
36800;DHT22;22752;51.960;5.886;2023-04-01T07:32:32;11.30;99.90
36800;DHT22;22752;51.960;5.886;2023-04-01T07:40:32;11.30;99.90
36800;DHT22;22752;51.960;5.886;2023-04-01T07:48:55;11.30;99.90
36800;DHT22;22752;51.960;5.886;2023-04-01T07:57:47;11.40;99.90
36800;DHT22;22752;51.960;5.886;2023-04-01T08:06:03;11.50;99.90
36800;DHT22;22752;51.960;5.886;2023-04-01T08:14:20;11.70;99.90
36800;DHT22;22752;51.960;5.886;2023-04-01T08:17:06;11.80;99.90
36800;DHT22;22752;51.960;5.886;2023-04-01T08:23:05;11.90;99.90
36800;DHT22;22752;51.960;5.886;2023-04-01T08:25:29;11.90;99.90
36800;DHT22;22752;51.960;5.886;2023-04-01T08:28:03;11.90;99.90
36800;DHT22;22752;51.960;5.886;2023-04-01T08:30:53;11.80;99.90
36800;DHT22;22752;51.960;5.886;2023-04-01T08:35:54;11.80;99.90
36800;DHT22;22752;51.960;5.886;2023-04-01T08:38:33;11.90;99.90
36800;DHT22;22752;51.960;5.886;2023-04-01T08:52:27;12.30;99.90
36800;DHT22;22752;51.960;5.886;2023-04-01T08:55:27;12.40;99.90
36800;DHT22;22752;51.960;5.886;2023-04-01T09:06:29;12.30;99.90
36800;DHT22;22752;51.960;5.886;2023-04-01T09:09:26;12.40;99.90
36800;DHT22;22752;51.960;5.886;2023-04-01T09:20:42;12.60;99.90
36800;DHT22;22752;51.960;5.886;2023-04-01T09:34:26;12.60;99.90
36800;DHT22;22752;51.960;5.886;2023-04-01T09:42:42;12.60;99.90
36800;DHT22;22752;51.960;5.886;2023-04-01T10:02:43;12.40;99.90
36800;DHT22;22752;51.960;5.886;2023-04-01T10:10:45;12.10;99.90
36800;DHT22;22752;51.960;5.886;2023-04-01T10:13:34;12.00;99.90
36800;DHT22;22752;51.960;5.886;2023-04-01T10:16:22;11.90;99.90
36800;DHT22;22752;51.960;5.886;2023-04-01T10:30:16;12.20;99.90
36800;DHT22;22752;51.960;5.886;2023-04-01T10:56:33;12.50;99.90
36800;DHT22;22752;51.960;5.886;2023-04-01T11:10:20;13.20;99.90
36800;DHT22;22752;51.960;5.886;2023-04-01T11:24:54;13.20;99.90
36800;DHT22;22752;51.960;5.886;2023-04-01T11:30:16;13.40;99.90
36800;DHT22;22752;51.960;5.886;2023-04-01T11:32:57;13.40;99.90
36800;DHT22;22752;51.960;5.886;2023-04-01T11:38:17;13.30;99.90
36800;DHT22;22752;51.960;5.886;2023-04-01T11:46:39;12.60;99.90
36800;DHT22;22752;51.960;5.886;2023-04-01T11:54:39;12.70;99.90
36800;DHT22;22752;51.960;5.886;2023-04-01T12:00:18;12.80;99.90
36800;DHT22;22752;51.960;5.886;2023-04-01T12:03:13;12.80;99.90
36800;DHT22;22752;51.960;5.886;2023-04-01T12:11:10;12.60;99.90
36800;DHT22;22752;51.960;5.886;2023-04-01T12:13:53;12.50;99.90
36800;DHT22;22752;51.960;5.886;2023-04-01T12:37:59;12.00;99.90
36800;DHT22;22752;51.960;5.886;2023-04-01T12:54:49;12.10;99.90
36800;DHT22;22752;51.960;5.886;2023-04-01T13:05:37;12.20;99.90
36800;DHT22;22752;51.960;5.886;2023-04-01T13:08:32;12.30;99.90
36800;DHT22;22752;51.960;5.886;2023-04-01T13:16:33;12.40;99.90
36800;DHT22;22752;51.960;5.886;2023-04-01T13:19:21;12.50;99.90
36800;DHT22;22752;51.960;5.886;2023-04-01T13:21:54;12.60;99.90
36800;DHT22;22752;51.960;5.886;2023-04-01T13:24:34;12.70;99.90
36800;DHT22;22752;51.960;5.886;2023-04-01T13:27:40;12.80;99.90
36800;DHT22;22752;51.960;5.886;2023-04-01T13:47:23;13.20;99.90
36800;DHT22;22752;51.960;5.886;2023-04-01T13:56:11;12.90;99.90
36800;DHT22;22752;51.960;5.886;2023-04-01T14:09:56;12.40;99.90
36800;DHT22;22752;51.960;5.886;2023-04-01T14:12:30;12.30;99.90
36800;DHT22;22752;51.960;5.886;2023-04-01T14:31:43;12.20;99.90
36800;DHT22;22752;51.960;5.886;2023-04-01T14:37:05;12.30;99.90
36800;DHT22;22752;51.960;5.886;2023-04-01T14:40:03;12.30;99.90
36800;DHT22;22752;51.960;5.886;2023-04-01T14:48:36;12.30;99.90
36800;DHT22;22752;51.960;5.886;2023-04-01T14:51:32;12.20;99.90
36800;DHT22;22752;51.960;5.886;2023-04-01T14:56:38;12.30;99.90
36800;DHT22;22752;51.960;5.886;2023-04-01T14:59:09;12.20;99.90
36800;DHT22;22752;51.960;5.886;2023-04-01T15:01:47;12.20;99.90
36800;DHT22;22752;51.960;5.886;2023-04-01T15:06:55;12.00;99.90
36800;DHT22;22752;51.960;5.886;2023-04-01T15:09:44;12.00;99.90
36800;DHT22;22752;51.960;5.886;2023-04-01T15:12:54;12.00;99.90
36800;DHT22;22752;51.960;5.886;2023-04-01T15:19:07;11.90;99.90
36800;DHT22;22752;51.960;5.886;2023-04-01T15:34:34;12.20;99.90
36800;DHT22;22752;51.960;5.886;2023-04-01T15:37:04;12.30;99.90
36800;DHT22;22752;51.960;5.886;2023-04-01T15:39:44;12.30;99.90
36800;DHT22;22752;51.960;5.886;2023-04-01T15:56:22;11.70;99.90
36800;DHT22;22752;51.960;5.886;2023-04-01T15:58:56;11.60;99.90
36800;DHT22;22752;51.960;5.886;2023-04-01T16:02:01;11.60;99.90
36800;DHT22;22752;51.960;5.886;2023-04-01T16:04:47;11.60;99.90
36800;DHT22;22752;51.960;5.886;2023-04-01T16:07:30;11.60;99.90
36800;DHT22;22752;51.960;5.886;2023-04-01T16:15:48;11.60;99.90
36800;DHT22;22752;51.960;5.886;2023-04-01T16:21:24;11.50;99.90
36800;DHT22;22752;51.960;5.886;2023-04-01T16:23:59;11.50;99.90
36800;DHT22;22752;51.960;5.886;2023-04-01T16:26:31;11.50;99.90
36800;DHT22;22752;51.960;5.886;2023-04-01T16:29:12;11.40;99.90
36800;DHT22;22752;51.960;5.886;2023-04-01T16:34:38;11.40;99.90
36800;DHT22;22752;51.960;5.886;2023-04-01T16:37:37;11.40;99.90
36800;DHT22;22752;51.960;5.886;2023-04-01T16:42:56;11.40;99.90
36800;DHT22;22752;51.960;5.886;2023-04-01T16:45:43;11.40;99.90
36800;DHT22;22752;51.960;5.886;2023-04-01T16:48:18;11.40;99.90
36800;DHT22;22752;51.960;5.886;2023-04-01T16:50:59;11.30;99.90
36800;DHT22;22752;51.960;5.886;2023-04-01T16:53:36;11.30;99.90
36800;DHT22;22752;51.960;5.886;2023-04-01T16:56:10;11.20;99.90
36800;DHT22;22752;51.960;5.886;2023-04-01T16:58:41;11.20;99.90
36800;DHT22;22752;51.960;5.886;2023-04-01T17:01:13;11.20;99.90
36800;DHT22;22752;51.960;5.886;2023-04-01T17:03:44;11.10;99.90
36800;DHT22;22752;51.960;5.886;2023-04-01T17:06:45;11.00;99.90
36800;DHT22;22752;51.960;5.886;2023-04-01T17:12:13;10.90;99.90
36800;DHT22;22752;51.960;5.886;2023-04-01T17:27:59;10.60;99.90
36800;DHT22;22752;51.960;5.886;2023-04-01T17:30:53;10.50;99.90
36800;DHT22;22752;51.960;5.886;2023-04-01T17:33:53;10.50;99.90
36800;DHT22;22752;51.960;5.886;2023-04-01T17:42:18;10.30;99.90
36800;DHT22;22752;51.960;5.886;2023-04-01T18:02:26;10.10;99.90
36800;DHT22;22752;51.960;5.886;2023-04-01T18:10:16;10.10;99.90
36800;DHT22;22752;51.960;5.886;2023-04-01T18:21:49;9.90;99.90
36800;DHT22;22752;51.960;5.886;2023-04-01T18:24:43;9.80;99.90
36800;DHT22;22752;51.960;5.886;2023-04-01T18:27:24;9.80;99.90
36800;DHT22;22752;51.960;5.886;2023-04-01T18:29:54;9.80;99.90
36800;DHT22;22752;51.960;5.886;2023-04-01T18:37:57;9.60;99.90
36800;DHT22;22752;51.960;5.886;2023-04-01T18:40:32;9.60;99.90
36800;DHT22;22752;51.960;5.886;2023-04-01T18:43:22;9.60;99.90
36800;DHT22;22752;51.960;5.886;2023-04-01T18:46:00;9.60;99.90
36800;DHT22;22752;51.960;5.886;2023-04-01T18:51:16;9.50;99.90
36800;DHT22;22752;51.960;5.886;2023-04-01T18:54:04;9.50;99.90
36800;DHT22;22752;51.960;5.886;2023-04-01T18:56:35;9.50;99.90
36800;DHT22;22752;51.960;5.886;2023-04-01T18:59:12;9.50;99.90
36800;DHT22;22752;51.960;5.886;2023-04-01T19:13:19;9.30;99.90
36800;DHT22;22752;51.960;5.886;2023-04-01T19:30:19;9.20;99.90
36800;DHT22;22752;51.960;5.886;2023-04-01T19:32:52;9.20;99.90
36800;DHT22;22752;51.960;5.886;2023-04-01T19:38:14;9.10;99.90
36800;DHT22;22752;51.960;5.886;2023-04-01T19:46:49;9.10;99.90
36800;DHT22;22752;51.960;5.886;2023-04-01T19:54:48;9.00;99.90
36800;DHT22;22752;51.960;5.886;2023-04-01T20:00:28;8.90;99.90
36800;DHT22;22752;51.960;5.886;2023-04-01T20:05:56;8.80;99.90
36800;DHT22;22752;51.960;5.886;2023-04-01T20:08:43;8.70;99.90
36800;DHT22;22752;51.960;5.886;2023-04-01T20:14:04;8.60;99.90
36800;DHT22;22752;51.960;5.886;2023-04-01T20:17:15;8.60;99.90
36800;DHT22;22752;51.960;5.886;2023-04-01T20:28:04;8.50;99.90
36800;DHT22;22752;51.960;5.886;2023-04-01T20:39:20;8.40;99.90
36800;DHT22;22752;51.960;5.886;2023-04-01T20:44:39;8.30;99.90
36800;DHT22;22752;51.960;5.886;2023-04-01T20:47:36;8.30;99.90
36800;DHT22;22752;51.960;5.886;2023-04-01T20:50:21;8.30;99.90
36800;DHT22;22752;51.960;5.886;2023-04-01T20:55:54;8.20;99.90
36800;DHT22;22752;51.960;5.886;2023-04-01T20:58:40;8.20;99.90
36800;DHT22;22752;51.960;5.886;2023-04-01T21:01:41;8.10;99.90
36800;DHT22;22752;51.960;5.886;2023-04-01T21:04:24;8.10;99.90
36800;DHT22;22752;51.960;5.886;2023-04-01T21:12:34;8.00;99.90
36800;DHT22;22752;51.960;5.886;2023-04-01T21:18:23;7.90;99.90
36800;DHT22;22752;51.960;5.886;2023-04-01T21:21:10;8.00;99.90
36800;DHT22;22752;51.960;5.886;2023-04-01T21:29:11;8.00;99.90
36800;DHT22;22752;51.960;5.886;2023-04-01T21:42:57;7.80;99.90
36800;DHT22;22752;51.960;5.886;2023-04-01T21:48:29;7.80;99.90
36800;DHT22;22752;51.960;5.886;2023-04-01T22:02:13;7.70;99.90
36800;DHT22;22752;51.960;5.886;2023-04-01T22:04:49;7.60;99.90
36800;DHT22;22752;51.960;5.886;2023-04-01T22:10:38;7.70;99.90
36800;DHT22;22752;51.960;5.886;2023-04-01T22:13:12;7.70;99.90
36800;DHT22;22752;51.960;5.886;2023-04-01T22:19:10;7.60;99.90
36800;DHT22;22752;51.960;5.886;2023-04-01T22:27:08;7.60;99.90
36800;DHT22;22752;51.960;5.886;2023-04-01T22:30:03;7.60;99.90
36800;DHT22;22752;51.960;5.886;2023-04-01T22:32:57;7.50;99.90
36800;DHT22;22752;51.960;5.886;2023-04-01T22:38:19;7.50;99.90
36800;DHT22;22752;51.960;5.886;2023-04-01T22:43:39;7.50;99.90
36800;DHT22;22752;51.960;5.886;2023-04-01T22:54:39;7.40;99.90
36800;DHT22;22752;51.960;5.886;2023-04-01T22:57:14;7.30;99.90
36800;DHT22;22752;51.960;5.886;2023-04-01T22:59:57;7.30;99.90
36800;DHT22;22752;51.960;5.886;2023-04-01T23:02:29;7.30;99.90
36800;DHT22;22752;51.960;5.886;2023-04-01T23:05:00;7.30;99.90
36800;DHT22;22752;51.960;5.886;2023-04-01T23:09:58;7.20;99.90
36800;DHT22;22752;51.960;5.886;2023-04-01T23:12:27;7.20;99.90
36800;DHT22;22752;51.960;5.886;2023-04-01T23:14:58;7.20;99.90
36800;DHT22;22752;51.960;5.886;2023-04-01T23:17:42;7.20;99.90
36800;DHT22;22752;51.960;5.886;2023-04-01T23:26:13;7.20;99.90
36800;DHT22;22752;51.960;5.886;2023-04-01T23:28:46;7.20;99.90
36800;DHT22;22752;51.960;5.886;2023-04-01T23:31:37;7.20;99.90
36800;DHT22;22752;51.960;5.886;2023-04-01T23:34:21;7.20;99.90
36800;DHT22;22752;51.960;5.886;2023-04-01T23:36:50;7.20;99.90
36800;DHT22;22752;51.960;5.886;2023-04-01T23:39:22;7.10;99.90
36800;DHT22;22752;51.960;5.886;2023-04-01T23:41:51;7.10;99.90
36800;DHT22;22752;51.960;5.886;2023-04-01T23:44:18;7.20;99.90
36800;DHT22;22752;51.960;5.886;2023-04-01T23:46:46;7.10;99.90
36800;DHT22;22752;51.960;5.886;2023-04-01T23:49:17;7.10;99.90
36800;DHT22;22752;51.960;5.886;2023-04-01T23:51:56;7.10;99.90
36800;DHT22;22752;51.960;5.886;2023-04-01T23:54:33;7.00;99.90
36800;DHT22;22752;51.960;5.886;2023-04-01T23:57:05;7.00;99.90
36800;DHT22;22752;51.960;5.886;2023-04-01T23:59:36;6.90;99.90
